Time;durP1;ratioP1;P1;durP2;ratioP2;P2;SDS_P1;SDS_P2;PMS_P1;PMS_P2;Temp;Humidity;BMP_temperature;BMP_pressure;BME280_temperature;BME280_humidity;BME280_pressure;Samples;Min_cycle;Max_cycle;Signal;HPM_P1;HPM_P2
2023/07/20 00:02:05;;;;;;;3.60;3.30;;;25.40;60.80;;;;;;4994048;28;20440;-70
2023/07/20 00:04:32;;;;;;;4.27;3.00;;;25.40;60.90;;;;;;5004892;28;20192;-70
2023/07/20 00:07:00;;;;;;;3.50;3.20;;;25.40;60.60;;;;;;4997323;28;20442;-71
2023/07/20 00:09:29;;;;;;;3.37;3.17;;;25.40;60.60;;;;;;4997030;28;20459;-70
2023/07/20 00:11:55;;;;;;;4.53;3.27;;;25.40;60.70;;;;;;5029555;28;20501;-70
2023/07/20 00:14:24;;;;;;;3.47;3.20;;;25.40;60.70;;;;;;4980499;28;20437;-70
2023/07/20 00:16:56;;;;;;;3.80;3.50;;;25.40;60.70;;;;;;4998576;28;20478;-70
2023/07/20 00:19:24;;;;;;;3.53;3.33;;;25.40;60.90;;;;;;4993666;28;20442;-70
2023/07/20 00:21:50;;;;;;;3.10;2.90;;;25.40;60.70;;;;;;4993873;28;20405;-70
2023/07/20 00:24:18;;;;;;;3.53;3.23;;;25.30;60.70;;;;;;5002537;28;20493;-70
2023/07/20 00:26:46;;;;;;;3.07;2.87;;;25.30;60.70;;;;;;5006164;28;20797;-70
2023/07/20 00:29:13;;;;;;;3.60;3.30;;;25.30;60.80;;;;;;5012735;28;20848;-70
2023/07/20 00:31:43;;;;;;;3.43;3.13;;;25.30;61.00;;;;;;4997133;28;20427;-70
2023/07/20 00:34:09;;;;;;;3.40;3.10;;;25.30;60.90;;;;;;5007828;28;20990;-70
2023/07/20 00:36:35;;;;;;;3.80;3.30;;;25.30;60.90;;;;;;5001984;28;20427;-70
2023/07/20 00:39:03;;;;;;;3.70;3.17;;;25.30;61.10;;;;;;5012876;28;20611;-70
2023/07/20 00:41:29;;;;;;;3.30;3.00;;;25.20;60.80;;;;;;4980440;28;20439;-70
2023/07/20 00:43:56;;;;;;;3.73;3.43;;;25.20;60.80;;;;;;5012068;28;20407;-70
2023/07/20 00:46:25;;;;;;;3.70;3.40;;;25.20;61.00;;;;;;4996665;28;20427;-70
2023/07/20 00:48:54;;;;;;;3.63;3.33;;;25.20;61.00;;;;;;5012471;28;20561;-70
2023/07/20 00:51:25;;;;;;;3.20;3.00;;;25.20;61.00;;;;;;4996717;28;20485;-70
2023/07/20 00:53:51;;;;;;;5.90;3.57;;;25.20;61.10;;;;;;4978907;28;20530;-70
2023/07/20 00:56:17;;;;;;;3.50;3.30;;;25.20;61.20;;;;;;5007494;28;20508;-70
2023/07/20 00:58:46;;;;;;;3.37;3.17;;;25.20;61.10;;;;;;4993528;28;20825;-70
2023/07/20 01:01:13;;;;;;;3.40;3.10;;;25.20;61.30;;;;;;4993403;28;20767;-70
2023/07/20 01:03:40;;;;;;;3.83;3.50;;;25.20;61.30;;;;;;5009806;28;20866;-70
2023/07/20 01:06:27;;;;;;;3.80;3.50;;;25.10;61.20;;;;;;5008547;28;20425;-70
2023/07/20 01:09:02;;;;;;;3.30;3.10;;;25.10;61.10;;;;;;4993079;28;20436;-70
2023/07/20 01:11:59;;;;;;;3.90;3.60;;;25.20;61.20;;;;;;4993263;28;20476;-70
2023/07/20 01:14:25;;;;;;;3.97;3.57;;;25.10;61.40;;;;;;4982423;28;20415;-70
2023/07/20 01:16:54;;;;;;;3.47;3.27;;;25.10;61.80;;;;;;5003282;28;20432;-70
2023/07/20 01:19:20;;;;;;;3.60;3.37;;;25.10;61.80;;;;;;4993222;28;20535;-70
2023/07/20 01:22:09;;;;;;;3.67;3.37;;;25.00;61.80;;;;;;4993223;28;20937;-70
2023/07/20 01:25:06;;;;;;;4.10;3.70;;;25.10;61.90;;;;;;4999420;28;20408;-70
2023/07/20 01:28:11;;;;;;;3.80;3.47;;;25.00;62.10;;;;;;5015736;28;20432;-70
2023/07/20 01:30:54;;;;;;;3.90;3.37;;;25.00;62.60;;;;;;4993086;28;21013;-70
2023/07/20 01:33:23;;;;;;;4.03;3.43;;;25.00;62.60;;;;;;4993561;28;20436;-70
2023/07/20 01:35:59;;;;;;;4.07;3.77;;;25.00;63.10;;;;;;5027352;28;20435;-70
2023/07/20 01:38:26;;;;;;;4.00;3.60;;;25.00;63.20;;;;;;4996058;28;20440;-70
2023/07/20 01:40:53;;;;;;;4.33;3.77;;;25.00;62.80;;;;;;5029832;28;20408;-71
2023/07/20 01:43:21;;;;;;;4.37;3.97;;;24.90;63.00;;;;;;4990190;28;20480;-71
2023/07/20 01:45:47;;;;;;;3.87;3.30;;;24.90;62.70;;;;;;5008892;28;20419;-70
2023/07/20 01:48:13;;;;;;;3.57;3.37;;;25.00;63.30;;;;;;5012147;28;20478;-71
2023/07/20 01:50:41;;;;;;;3.50;3.20;;;25.00;63.60;;;;;;4995769;28;20463;-70
2023/07/20 01:53:10;;;;;;;4.03;3.73;;;24.90;63.10;;;;;;4995814;28;20446;-71
2023/07/20 01:55:38;;;;;;;3.47;3.17;;;24.90;63.30;;;;;;5011933;28;20457;-70
2023/07/20 01:58:05;;;;;;;3.37;3.17;;;24.90;63.40;;;;;;4995842;28;20480;-70
2023/07/20 02:00:32;;;;;;;3.80;3.50;;;24.90;63.20;;;;;;4995841;28;20435;-70
2023/07/20 02:02:58;;;;;;;5.17;3.13;;;24.90;63.30;;;;;;5011923;28;20516;-70
2023/07/20 02:05:29;;;;;;;4.43;4.03;;;24.90;63.10;;;;;;5097879;23;20596;-67
2023/07/20 02:07:55;;;;;;;4.07;3.67;;;24.90;63.50;;;;;;5033103;28;20437;-67
2023/07/20 02:10:26;;;;;;;4.13;3.83;;;24.90;63.60;;;;;;5033602;28;20968;-67
2023/07/20 02:12:52;;;;;;;3.90;3.50;;;24.90;63.70;;;;;;5033278;28;20457;-67
2023/07/20 02:15:21;;;;;;;4.17;3.80;;;24.80;63.50;;;;;;5036177;28;20410;-67
2023/07/20 02:17:47;;;;;;;6.37;3.40;;;24.80;63.30;;;;;;5036935;28;20452;-66
2023/07/20 02:20:17;;;;;;;3.77;3.57;;;24.80;63.40;;;;;;5036911;28;20908;-67
2023/07/20 02:22:43;;;;;;;4.80;3.87;;;24.80;63.50;;;;;;5053351;28;20497;-66
2023/07/20 02:25:14;;;;;;;4.10;3.60;;;24.80;63.70;;;;;;5036568;28;20398;-67
2023/07/20 02:27:42;;;;;;;4.40;3.93;;;24.80;63.60;;;;;;5036174;28;20410;-67
2023/07/20 02:30:09;;;;;;;6.03;3.57;;;24.80;64.20;;;;;;5002903;28;20457;-67
2023/07/20 02:32:36;;;;;;;3.87;3.53;;;24.80;64.10;;;;;;5054265;28;20444;-66
2023/07/20 02:35:03;;;;;;;3.90;3.60;;;24.70;63.90;;;;;;5019813;28;20446;-67
2023/07/20 02:37:29;;;;;;;3.77;3.57;;;24.70;64.20;;;;;;5057502;28;21356;-66
2023/07/20 02:39:55;;;;;;;3.67;3.37;;;24.70;63.80;;;;;;5056055;28;20706;-66
2023/07/20 02:42:25;;;;;;;4.17;3.80;;;24.70;63.90;;;;;;5056026;28;20437;-66
2023/07/20 02:44:52;;;;;;;5.27;4.20;;;24.70;63.90;;;;;;5066081;28;20423;-67
2023/07/20 02:47:18;;;;;;;4.17;3.83;;;24.70;63.90;;;;;;5019375;28;20533;-66
2023/07/20 02:49:44;;;;;;;3.87;3.57;;;24.70;63.90;;;;;;5053585;28;20454;-66
2023/07/20 02:52:13;;;;;;;4.23;3.80;;;24.70;64.10;;;;;;5036130;28;20409;-67
2023/07/20 02:54:38;;;;;;;4.00;3.47;;;24.70;63.90;;;;;;5036085;28;20165;-67
2023/07/20 02:57:09;;;;;;;3.97;3.67;;;24.60;63.70;;;;;;5004067;28;20419;-66
2023/07/20 02:59:37;;;;;;;3.87;3.57;;;24.60;64.00;;;;;;5019628;28;20559;-67
2023/07/20 03:02:09;;;;;;;4.20;3.90;;;24.60;64.20;;;;;;5003227;28;20430;-67
2023/07/20 03:04:37;;;;;;;3.77;3.47;;;24.60;64.20;;;;;;5019554;28;20521;-67
2023/07/20 03:07:08;;;;;;;3.77;3.50;;;24.60;63.80;;;;;;5036029;28;20426;-67
2023/07/20 03:09:34;;;;;;;4.13;3.73;;;24.60;64.10;;;;;;5035730;28;20426;-67
2023/07/20 03:12:05;;;;;;;3.90;3.60;;;24.60;64.10;;;;;;5003084;28;20419;-67
2023/07/20 03:14:31;;;;;;;3.60;3.40;;;24.50;63.80;;;;;;5039302;28;20409;-67
2023/07/20 03:16:58;;;;;;;4.33;3.93;;;24.50;63.90;;;;;;5048110;28;20417;-66
2023/07/20 03:19:24;;;;;;;4.17;3.87;;;24.50;63.70;;;;;;5044589;28;20453;-66
2023/07/20 03:21:50;;;;;;;3.90;3.67;;;24.50;64.10;;;;;;5055606;28;20409;-66
2023/07/20 03:24:21;;;;;;;3.67;3.47;;;24.50;63.80;;;;;;5054297;28;20453;-67
2023/07/20 03:26:50;;;;;;;3.70;3.40;;;24.50;64.30;;;;;;5018390;28;20391;-67
2023/07/20 03:29:16;;;;;;;3.60;3.30;;;24.50;64.40;;;;;;5019113;28;20512;-66
2023/07/20 03:31:46;;;;;;;5.10;3.70;;;24.50;64.00;;;;;;5019023;28;20438;-66
2023/07/20 03:34:14;;;;;;;4.60;4.30;;;24.50;63.90;;;;;;5003452;28;20958;-67
2023/07/20 03:36:43;;;;;;;3.93;3.63;;;24.40;63.90;;;;;;5018944;28;20473;-66
2023/07/20 03:39:12;;;;;;;3.80;3.60;;;24.50;63.80;;;;;;5002971;28;20938;-66
2023/07/20 03:41:41;;;;;;;4.37;4.00;;;24.50;64.00;;;;;;5035288;28;20405;-67
2023/07/20 03:44:11;;;;;;;4.40;4.00;;;24.40;64.20;;;;;;5035229;28;20426;-67
2023/07/20 03:46:37;;;;;;;4.50;4.10;;;24.40;64.20;;;;;;5018434;28;20422;-67
2023/07/20 03:49:05;;;;;;;4.27;3.87;;;24.40;64.00;;;;;;5017460;28;20990;-67
2023/07/20 03:51:34;;;;;;;3.67;3.40;;;24.40;64.30;;;;;;5052008;28;20576;-67
2023/07/20 03:54:00;;;;;;;3.93;3.63;;;24.40;64.50;;;;;;5018597;28;20969;-67
2023/07/20 03:56:26;;;;;;;4.10;3.80;;;24.40;64.20;;;;;;5018610;28;20415;-67
2023/07/20 03:58:53;;;;;;;4.20;3.90;;;24.40;64.10;;;;;;5034649;28;20797;-66
2023/07/20 04:01:19;;;;;;;4.40;4.10;;;24.30;63.80;;;;;;5005797;28;20569;-66
2023/07/20 04:03:47;;;;;;;4.43;4.13;;;24.30;64.20;;;;;;5052971;28;20410;-67
2023/07/20 04:06:14;;;;;;;4.00;3.70;;;24.30;64.40;;;;;;5048389;28;20514;-66
2023/07/20 04:08:40;;;;;;;4.40;4.00;;;24.30;64.00;;;;;;5034482;28;20200;-66
2023/07/20 04:11:06;;;;;;;5.20;4.70;;;24.30;64.70;;;;;;5016629;28;20549;-67
2023/07/20 04:13:36;;;;;;;6.53;4.37;;;24.30;64.60;;;;;;5051407;28;20448;-67
2023/07/20 04:16:02;;;;;;;3.90;3.70;;;24.30;64.50;;;;;;5017175;28;20431;-66
2023/07/20 04:18:28;;;;;;;4.50;3.67;;;24.20;64.10;;;;;;5033259;28;20830;-67
2023/07/20 04:20:54;;;;;;;3.90;3.70;;;24.30;64.20;;;;;;5021199;28;20808;-66
2023/07/20 04:23:23;;;;;;;4.17;3.87;;;24.20;64.30;;;;;;5071157;28;20480;-67
2023/07/20 04:25:50;;;;;;;4.47;4.07;;;24.20;64.20;;;;;;5037044;28;20422;-66
2023/07/20 04:28:18;;;;;;;4.10;3.73;;;24.20;64.20;;;;;;5033377;28;20454;-67
2023/07/20 04:30:51;;;;;;;4.17;3.87;;;24.20;64.20;;;;;;5053012;28;20511;-67
2023/07/20 04:33:19;;;;;;;4.10;3.80;;;24.20;64.20;;;;;;5036179;28;20442;-68
2023/07/20 04:35:54;;;;;;;4.77;4.23;;;24.20;64.10;;;;;;5050017;28;20445;-68
2023/07/20 04:38:28;;;;;;;4.53;4.13;;;24.20;64.10;;;;;;5013608;28;20474;-67
2023/07/20 04:41:26;;;;;;;4.30;3.90;;;24.20;65.20;;;;;;5041472;28;20505;-68
2023/07/20 04:43:55;;;;;;;4.27;3.87;;;24.20;64.70;;;;;;5052909;28;20910;-68
2023/07/20 04:46:27;;;;;;;4.20;3.87;;;24.10;64.50;;;;;;5043634;28;20425;-68
2023/07/20 04:48:56;;;;;;;3.97;3.70;;;24.10;64.50;;;;;;5033241;28;20430;-68
2023/07/20 04:51:23;;;;;;;5.07;4.67;;;24.10;64.50;;;;;;5022963;28;20446;-68
2023/07/20 04:53:53;;;;;;;4.20;3.63;;;24.10;64.40;;;;;;5032832;28;20894;-68
2023/07/20 04:56:19;;;;;;;5.07;4.67;;;24.10;64.30;;;;;;5050739;28;20909;-68
2023/07/20 04:58:46;;;;;;;4.03;3.63;;;24.10;64.40;;;;;;5032730;28;20484;-68
2023/07/20 05:01:15;;;;;;;5.80;4.23;;;24.10;64.40;;;;;;5004787;28;20792;-68
2023/07/20 05:03:43;;;;;;;4.27;3.90;;;24.10;64.30;;;;;;5032797;28;20744;-68
2023/07/20 05:06:12;;;;;;;4.20;3.90;;;24.10;64.50;;;;;;5000194;28;20952;-68
2023/07/20 05:08:39;;;;;;;4.57;4.13;;;24.10;64.70;;;;;;5015746;28;20827;-68
2023/07/20 05:11:05;;;;;;;4.70;4.07;;;24.10;64.60;;;;;;4999627;28;20536;-68
2023/07/20 05:13:32;;;;;;;4.33;4.00;;;24.00;64.50;;;;;;5020152;28;20464;-68
2023/07/20 05:15:58;;;;;;;4.90;4.40;;;24.10;64.70;;;;;;5016637;28;20480;-68
2023/07/20 05:18:24;;;;;;;5.03;4.63;;;24.10;64.90;;;;;;5016254;28;20514;-68
2023/07/20 05:20:52;;;;;;;5.00;4.50;;;24.00;64.70;;;;;;5000038;28;20546;-68
2023/07/20 05:23:20;;;;;;;4.90;4.50;;;24.00;64.80;;;;;;5024329;28;20424;-68
2023/07/20 05:25:58;;;;;;;5.27;4.87;;;24.00;64.90;;;;;;5052896;22;20911;-69
2023/07/20 05:28:26;;;;;;;4.70;4.40;;;24.00;65.00;;;;;;5050072;28;20438;-70
2023/07/20 05:30:53;;;;;;;4.87;4.57;;;24.00;64.80;;;;;;5031841;28;20442;-70
2023/07/20 05:33:22;;;;;;;4.73;4.33;;;24.00;64.80;;;;;;5016019;28;20511;-69
2023/07/20 05:35:51;;;;;;;5.30;4.80;;;24.00;64.80;;;;;;5015464;28;21027;-69
2023/07/20 05:38:18;;;;;;;4.80;4.40;;;24.00;64.90;;;;;;5049826;28;20503;-69
2023/07/20 05:40:45;;;;;;;5.20;4.80;;;24.00;64.80;;;;;;5002806;28;20836;-70
2023/07/20 05:43:14;;;;;;;5.80;4.57;;;23.90;65.00;;;;;;5020330;28;20429;-70
2023/07/20 05:45:44;;;;;;;4.67;4.33;;;24.00;65.00;;;;;;5031368;28;20946;-70
2023/07/20 05:48:13;;;;;;;6.60;4.57;;;24.00;65.00;;;;;;4999270;28;20559;-70
2023/07/20 05:50:44;;;;;;;4.70;4.30;;;23.90;65.00;;;;;;5037050;28;20586;-70
2023/07/20 05:53:10;;;;;;;5.47;4.67;;;23.90;65.30;;;;;;5038633;28;20508;-70
2023/07/20 05:55:36;;;;;;;5.10;4.70;;;23.90;65.30;;;;;;5031490;28;20560;-70
2023/07/20 05:58:08;;;;;;;5.30;4.90;;;23.90;65.20;;;;;;5053702;28;20442;-70
2023/07/20 06:00:34;;;;;;;5.30;4.90;;;23.90;65.30;;;;;;5053721;28;20412;-69
2023/07/20 06:03:00;;;;;;;4.77;4.37;;;23.90;65.40;;;;;;5035218;28;20450;-70
2023/07/20 06:05:26;;;;;;;4.53;4.23;;;23.90;65.30;;;;;;5019283;28;20896;-69
2023/07/20 06:07:52;;;;;;;6.17;4.80;;;23.90;65.30;;;;;;5034599;28;20525;-70
2023/07/20 06:10:23;;;;;;;5.00;4.60;;;23.90;65.30;;;;;;5052833;28;20195;-70
2023/07/20 06:12:52;;;;;;;5.20;4.80;;;23.80;65.30;;;;;;5036196;28;20452;-70
2023/07/20 06:15:30;;;;;;;5.37;4.87;;;23.80;65.20;;;;;;5072916;28;20398;-69
2023/07/20 06:18:00;;;;;;;7.10;5.23;;;23.80;65.70;;;;;;5018115;28;20493;-70
2023/07/20 06:20:27;;;;;;;5.13;4.70;;;23.80;65.70;;;;;;5052746;28;20450;-69
2023/07/20 06:22:57;;;;;;;4.87;4.43;;;23.80;65.70;;;;;;5034801;28;20958;-69
2023/07/20 06:25:23;;;;;;;4.67;4.37;;;23.80;65.60;;;;;;5051121;28;21139;-70
2023/07/20 06:27:55;;;;;;;6.30;5.80;;;23.80;65.50;;;;;;5019129;28;20458;-71
2023/07/20 06:30:21;;;;;;;4.43;4.13;;;23.80;65.50;;;;;;5018666;28;20438;-71
2023/07/20 06:32:48;;;;;;;6.00;5.50;;;23.80;65.60;;;;;;5053471;28;20415;-71
2023/07/20 06:35:15;;;;;;;6.00;5.40;;;23.80;65.40;;;;;;5053210;28;20411;-71
2023/07/20 06:37:41;;;;;;;5.30;4.90;;;23.80;65.50;;;;;;5052451;28;20411;-71
2023/07/20 06:40:11;;;;;;;5.53;5.13;;;23.80;65.40;;;;;;5035116;28;20947;-69
2023/07/20 06:42:42;;;;;;;5.83;5.33;;;23.80;65.40;;;;;;5035041;28;20414;-71
2023/07/20 06:45:11;;;;;;;6.07;5.67;;;23.80;65.40;;;;;;5052609;28;20417;-71
2023/07/20 06:47:40;;;;;;;6.03;5.43;;;23.80;65.40;;;;;;5052365;28;20451;-71
2023/07/20 06:50:07;;;;;;;4.73;4.33;;;23.80;65.50;;;;;;5018459;28;20562;-71
2023/07/20 06:52:34;;;;;;;5.90;5.40;;;23.80;66.30;;;;;;5055269;28;20461;-71
2023/07/20 06:55:03;;;;;;;5.90;5.40;;;23.70;65.40;;;;;;5072374;28;20464;-71
2023/07/20 06:57:30;;;;;;;5.87;5.37;;;23.80;65.50;;;;;;5036567;28;20990;-71
2023/07/20 06:59:56;;;;;;;5.90;5.40;;;23.80;65.50;;;;;;5051680;28;20549;-71
2023/07/20 07:02:24;;;;;;;7.10;5.43;;;23.70;65.50;;;;;;5033576;28;20430;-71
2023/07/20 07:04:50;;;;;;;5.70;5.30;;;23.70;65.50;;;;;;5034083;28;21090;-71
2023/07/20 07:07:18;;;;;;;6.00;5.50;;;23.70;65.50;;;;;;5051239;28;20594;-71
2023/07/20 07:09:44;;;;;;;5.90;5.50;;;23.70;65.70;;;;;;5034035;28;20503;-71
2023/07/20 07:12:13;;;;;;;6.90;5.70;;;23.70;65.80;;;;;;5000897;28;20438;-71
2023/07/20 07:14:39;;;;;;;5.60;5.10;;;23.70;65.70;;;;;;5017337;28;20430;-71
2023/07/20 07:17:07;;;;;;;6.60;6.10;;;23.70;65.70;;;;;;5034228;28;20395;-71
2023/07/20 07:19:32;;;;;;;5.80;5.40;;;23.70;65.50;;;;;;5017215;28;21075;-71
2023/07/20 07:22:01;;;;;;;6.30;5.80;;;23.70;65.70;;;;;;5051922;28;20392;-71
2023/07/20 07:24:33;;;;;;;6.67;6.17;;;23.70;65.50;;;;;;5051240;28;20446;-71
2023/07/20 07:27:02;;;;;;;6.43;5.93;;;23.70;65.40;;;;;;5051105;28;20525;-71
2023/07/20 07:29:28;;;;;;;8.20;6.50;;;23.70;65.40;;;;;;5051485;28;20483;-71
2023/07/20 07:31:59;;;;;;;6.10;5.50;;;23.70;65.50;;;;;;5033007;28;20511;-71
2023/07/20 07:34:28;;;;;;;5.60;5.20;;;23.70;65.40;;;;;;5017352;28;20461;-71
2023/07/20 07:36:56;;;;;;;6.97;5.53;;;23.70;65.50;;;;;;5033822;28;20417;-71
2023/07/20 07:39:24;;;;;;;5.83;5.33;;;23.80;65.40;;;;;;5033170;28;21046;-71
2023/07/20 07:41:51;;;;;;;6.03;5.53;;;23.70;65.40;;;;;;5033317;28;20433;-71
2023/07/20 07:44:21;;;;;;;5.30;4.90;;;23.80;65.40;;;;;;5000953;28;20521;-71
2023/07/20 07:46:50;;;;;;;6.00;5.50;;;23.80;65.30;;;;;;5051308;28;20402;-71
2023/07/20 07:49:19;;;;;;;5.70;5.30;;;23.80;65.30;;;;;;5033401;28;20446;-71
2023/07/20 07:51:48;;;;;;;5.90;5.50;;;23.80;65.10;;;;;;5033256;28;20466;-71
2023/07/20 07:54:16;;;;;;;5.90;5.50;;;23.70;65.00;;;;;;5050250;28;20414;-71
2023/07/20 07:56:45;;;;;;;5.50;5.10;;;23.80;65.20;;;;;;5033620;28;20414;-71
2023/07/20 07:59:11;;;;;;;5.13;4.73;;;23.80;65.10;;;;;;5016689;28;20470;-71
2023/07/20 08:01:39;;;;;;;6.63;6.00;;;23.80;64.90;;;;;;5049648;28;20758;-71
2023/07/20 08:04:06;;;;;;;5.67;5.17;;;23.80;64.90;;;;;;5029361;28;20922;-71
2023/07/20 08:06:32;;;;;;;4.87;4.57;;;23.80;64.80;;;;;;5029749;28;20431;-71
2023/07/20 08:09:00;;;;;;;5.20;4.90;;;23.80;64.70;;;;;;5012901;28;20439;-71
2023/07/20 08:11:33;;;;;;;5.30;5.00;;;23.80;64.80;;;;;;5043153;28;20454;-71
2023/07/20 08:14:00;;;;;;;5.10;4.73;;;23.80;64.60;;;;;;5034979;28;20790;-71
2023/07/20 08:16:27;;;;;;;4.83;4.43;;;23.80;64.60;;;;;;5033678;28;20894;-71
2023/07/20 08:18:55;;;;;;;5.30;4.90;;;23.80;64.50;;;;;;5033678;28;20434;-72
2023/07/20 08:21:21;;;;;;;5.23;4.80;;;23.80;64.60;;;;;;5032310;28;21289;-72
2023/07/20 08:23:48;;;;;;;5.53;5.13;;;23.90;64.70;;;;;;5050463;28;21116;-72
2023/07/20 08:26:14;;;;;;;5.07;4.67;;;23.80;64.40;;;;;;5044417;28;20557;-72
2023/07/20 08:28:42;;;;;;;5.63;5.30;;;23.90;64.40;;;;;;5016974;28;20446;-72
2023/07/20 08:31:10;;;;;;;5.20;4.70;;;23.90;64.30;;;;;;5063779;28;20456;-71
2023/07/20 08:33:38;;;;;;;4.70;4.40;;;23.90;64.20;;;;;;5052811;28;20395;-72
2023/07/20 08:36:07;;;;;;;4.93;4.53;;;23.90;64.20;;;;;;5041843;28;20243;-72
2023/07/20 08:38:35;;;;;;;4.80;4.50;;;23.90;64.00;;;;;;5015798;28;20826;-71
2023/07/20 08:41:04;;;;;;;5.10;4.70;;;23.90;64.00;;;;;;5042603;28;20556;-71
2023/07/20 08:43:33;;;;;;;4.80;4.50;;;24.00;64.00;;;;;;5057821;28;20460;-72
2023/07/20 08:46:03;;;;;;;5.00;4.60;;;24.00;63.90;;;;;;5050387;28;20820;-71
2023/07/20 08:48:31;;;;;;;4.23;4.03;;;23.90;63.90;;;;;;5032439;28;20532;-71
2023/07/20 08:51:01;;;;;;;4.37;4.07;;;23.90;63.80;;;;;;5032452;28;20490;-71
2023/07/20 08:53:29;;;;;;;5.03;4.73;;;23.90;63.70;;;;;;5032327;28;20459;-71
2023/07/20 08:55:56;;;;;;;5.27;4.87;;;24.00;63.80;;;;;;5032106;28;20505;-71
2023/07/20 08:58:25;;;;;;;5.00;4.63;;;24.00;63.70;;;;;;5038802;28;20780;-71
2023/07/20 09:00:53;;;;;;;5.50;5.10;;;24.00;63.70;;;;;;5031451;28;20419;-71
2023/07/20 09:03:21;;;;;;;4.70;4.40;;;24.00;63.60;;;;;;5032147;28;20531;-72
2023/07/20 09:05:50;;;;;;;5.60;5.17;;;24.00;63.60;;;;;;5038804;28;20421;-72
2023/07/20 09:08:18;;;;;;;5.43;4.93;;;24.00;63.70;;;;;;5051939;28;20425;-72
2023/07/20 09:10:44;;;;;;;4.93;4.53;;;24.10;63.70;;;;;;5037428;28;20473;-71
2023/07/20 09:13:15;;;;;;;4.77;4.40;;;24.10;63.70;;;;;;5031516;28;20484;-71
2023/07/20 09:15:47;;;;;;;4.77;4.47;;;24.00;63.40;;;;;;5015266;28;20437;-71
2023/07/20 09:18:24;;;;;;;4.43;4.13;;;24.00;64.30;;;;;;4999861;28;20435;-72
2023/07/20 09:20:50;;;;;;;5.40;4.90;;;24.10;63.60;;;;;;5049573;28;20928;-72
2023/07/20 09:23:18;;;;;;;4.70;4.40;;;24.10;63.50;;;;;;5016065;28;20423;-72
2023/07/20 09:25:50;;;;;;;4.53;4.23;;;24.10;63.50;;;;;;5031696;28;20488;-72
2023/07/20 09:28:16;;;;;;;4.37;4.07;;;24.10;63.50;;;;;;5015644;28;20887;-72
2023/07/20 09:30:45;;;;;;;4.30;4.00;;;24.10;63.50;;;;;;5032530;28;20462;-71
2023/07/20 09:33:20;;;;;;;4.27;3.97;;;24.10;63.40;;;;;;5032883;28;20407;-72
2023/07/20 09:35:46;;;;;;;4.60;4.30;;;24.20;63.50;;;;;;5032779;28;20444;-71
2023/07/20 09:38:15;;;;;;;4.23;4.00;;;24.20;63.40;;;;;;5016505;28;20442;-72
2023/07/20 09:40:51;;;;;;;4.30;4.00;;;24.20;63.20;;;;;;5032985;28;20463;-70
2023/07/20 09:43:17;;;;;;;4.30;4.00;;;24.20;63.20;;;;;;5014930;28;20438;-68
2023/07/20 09:45:44;;;;;;;4.13;3.80;;;24.20;63.80;;;;;;5032955;28;20419;-68
2023/07/20 09:48:14;;;;;;;4.10;3.80;;;24.20;62.80;;;;;;5050214;28;20452;-67
2023/07/20 09:50:49;;;;;;;4.10;3.90;;;24.30;62.90;;;;;;5015991;28;20548;-68
2023/07/20 09:53:18;;;;;;;4.17;3.87;;;24.30;62.90;;;;;;5032320;28;20402;-68
2023/07/20 09:55:46;;;;;;;4.30;4.00;;;24.30;62.80;;;;;;5016254;28;20422;-68
2023/07/20 09:58:12;;;;;;;3.93;3.63;;;24.30;62.70;;;;;;5050536;28;20434;-67
2023/07/20 10:00:47;;;;;;;3.80;3.60;;;24.40;62.70;;;;;;5032655;28;20528;-68
2023/07/20 10:03:23;;;;;;;4.17;3.97;;;24.40;62.60;;;;;;5032412;28;20462;-68
2023/07/20 10:05:59;;;;;;;4.70;4.30;;;24.40;62.50;;;;;;5032644;28;20398;-68
2023/07/20 10:08:28;;;;;;;4.20;3.90;;;24.40;62.40;;;;;;5033033;28;20434;-68
2023/07/20 10:11:00;;;;;;;4.20;3.90;;;24.40;62.20;;;;;;5032766;28;20456;-68
2023/07/20 10:13:29;;;;;;;4.80;4.50;;;24.50;62.30;;;;;;5027966;22;20518;-69
2023/07/20 10:16:06;;;;;;;5.77;4.77;;;24.50;62.20;;;;;;5006061;28;20918;-68
2023/07/20 10:18:45;;;;;;;4.60;4.30;;;24.50;62.00;;;;;;4998384;28;20440;-69
2023/07/20 10:21:16;;;;;;;4.50;4.20;;;24.50;61.80;;;;;;4963838;28;20433;-68
2023/07/20 10:23:46;;;;;;;4.67;4.37;;;24.50;61.50;;;;;;5011524;28;20791;-69
2023/07/20 10:26:16;;;;;;;4.13;3.73;;;24.50;61.30;;;;;;4990214;28;20428;-71
2023/07/20 10:28:44;;;;;;;3.70;3.40;;;24.60;61.30;;;;;;4994056;28;20482;-74
2023/07/20 10:31:15;;;;;;;3.93;3.63;;;24.60;61.20;;;;;;5005399;28;20595;-73
2023/07/20 10:33:42;;;;;;;4.80;4.40;;;24.70;61.10;;;;;;4985796;28;20464;-74
2023/07/20 10:36:08;;;;;;;4.23;3.93;;;24.70;61.00;;;;;;5015995;28;20423;-73
2023/07/20 10:38:56;;;;;;;4.83;4.43;;;24.70;60.80;;;;;;5014659;28;20434;-71
2023/07/20 10:41:35;;;;;;;4.27;3.97;;;24.70;60.70;;;;;;4981310;28;20988;-70
2023/07/20 10:44:03;;;;;;;5.80;4.27;;;24.70;60.70;;;;;;4987030;28;20420;-74
2023/07/20 10:46:40;;;;;;;4.20;3.90;;;24.80;60.60;;;;;;4993285;28;20397;-70
2023/07/20 10:49:10;;;;;;;4.30;4.00;;;24.80;60.50;;;;;;4943148;28;20810;-70
2023/07/20 10:51:47;;;;;;;4.33;3.93;;;24.80;60.30;;;;;;4994589;28;20591;-74
2023/07/20 10:54:16;;;;;;;4.00;3.70;;;24.90;60.30;;;;;;4954444;28;20412;-70
2023/07/20 10:56:52;;;;;;;3.87;3.57;;;24.90;60.10;;;;;;4978162;28;20503;-70
2023/07/20 10:59:27;;;;;;;3.97;3.77;;;24.90;60.10;;;;;;4994319;28;20497;-71
2023/07/20 11:01:59;;;;;;;3.67;3.47;;;24.90;59.70;;;;;;4974750;28;20896;-71
2023/07/20 11:04:39;;;;;;;4.03;3.73;;;24.90;60.00;;;;;;4960197;28;20428;-71
2023/07/20 11:07:06;;;;;;;4.37;4.07;;;24.90;59.80;;;;;;4943163;28;20834;-70
2023/07/20 11:09:37;;;;;;;3.60;3.40;;;25.00;59.90;;;;;;4959109;28;20453;-71
2023/07/20 11:12:15;;;;;;;3.67;3.37;;;25.00;59.80;;;;;;4974694;28;20908;-70
2023/07/20 11:15:03;;;;;;;5.57;3.47;;;25.00;59.70;;;;;;4988105;28;20440;-71
2023/07/20 11:17:33;;;;;;;3.90;3.60;;;25.00;59.80;;;;;;4994184;28;20502;-69
2023/07/20 11:20:01;;;;;;;3.83;3.63;;;25.00;59.80;;;;;;4971717;28;20461;-69
2023/07/20 11:22:27;;;;;;;3.20;3.00;;;25.00;59.60;;;;;;4988584;28;20431;-68
2023/07/20 11:24:59;;;;;;;4.00;3.80;;;25.00;59.50;;;;;;5010854;28;20452;-69
2023/07/20 11:27:28;;;;;;;3.90;3.57;;;25.10;59.50;;;;;;5076856;23;21324;-70
2023/07/20 11:29:57;;;;;;;3.70;3.40;;;25.10;59.40;;;;;;5005539;28;20478;-71
2023/07/20 11:32:24;;;;;;;3.30;3.03;;;25.10;59.40;;;;;;5006019;28;20978;-70
2023/07/20 11:34:52;;;;;;;3.53;3.33;;;25.10;59.30;;;;;;5035281;28;20491;-71
2023/07/20 11:37:20;;;;;;;3.77;2.90;;;25.20;59.30;;;;;;5012517;28;20440;-72
2023/07/20 11:39:48;;;;;;;3.30;3.10;;;25.20;59.10;;;;;;5036904;28;20457;-72
2023/07/20 11:42:15;;;;;;;3.73;3.40;;;25.20;59.10;;;;;;5000018;28;20433;-71
2023/07/20 11:44:45;;;;;;;3.30;3.10;;;25.20;59.00;;;;;;5028349;28;20477;-70
2023/07/20 11:47:14;;;;;;;3.07;2.87;;;25.20;58.90;;;;;;5010278;28;20421;-71
2023/07/20 11:49:49;;;;;;;4.10;3.70;;;25.30;58.90;;;;;;5023556;28;21042;-71
2023/07/20 11:52:16;;;;;;;3.30;3.10;;;25.30;59.00;;;;;;5029578;28;20430;-71
2023/07/20 11:54:47;;;;;;;3.63;3.43;;;25.30;58.90;;;;;;5009630;28;20546;-72
2023/07/20 11:57:22;;;;;;;3.40;3.20;;;25.30;58.80;;;;;;5016197;28;20423;-70
2023/07/20 11:59:57;;;;;;;3.47;3.27;;;25.40;59.00;;;;;;5024004;28;20446;-72
2023/07/20 12:02:27;;;;;;;3.50;3.30;;;25.40;59.00;;;;;;5030148;28;20455;-72
2023/07/20 12:04:59;;;;;;;3.50;3.30;;;25.40;58.90;;;;;;5006686;28;20997;-71
2023/07/20 12:07:34;;;;;;;2.73;2.63;;;25.40;58.60;;;;;;5012419;28;20446;-72
2023/07/20 12:10:11;;;;;;;3.13;2.93;;;25.40;58.50;;;;;;5016539;28;20471;-70
2023/07/20 12:12:42;;;;;;;3.13;2.93;;;25.40;57.90;;;;;;5011039;28;20929;-72
2023/07/20 12:15:19;;;;;;;2.80;2.70;;;25.40;58.30;;;;;;5005322;28;20420;-74
2023/07/20 12:17:48;;;;;;;2.97;2.77;;;25.50;58.20;;;;;;5006406;28;20435;-71
2023/07/20 12:20:31;;;;;;;3.10;2.90;;;25.50;58.10;;;;;;5005396;28;20554;-71
2023/07/20 12:23:07;;;;;;;3.30;3.10;;;25.50;58.00;;;;;;5019244;28;20423;-70
2023/07/20 12:25:47;;;;;;;2.80;2.70;;;25.50;58.00;;;;;;5011557;28;20493;-70
2023/07/20 12:28:15;;;;;;;3.20;2.83;;;25.60;58.00;;;;;;5006966;28;21044;-71
2023/07/20 12:30:46;;;;;;;3.07;2.97;;;25.60;58.00;;;;;;5011416;28;20530;-71
2023/07/20 12:33:16;;;;;;;2.83;2.63;;;25.60;58.00;;;;;;5009563;28;20444;-71
2023/07/20 12:35:44;;;;;;;3.10;2.90;;;25.60;57.90;;;;;;5014506;28;20430;-71
2023/07/20 12:38:15;;;;;;;2.90;2.70;;;25.60;57.70;;;;;;4993097;28;20810;-71
2023/07/20 12:40:41;;;;;;;3.00;2.90;;;25.70;57.70;;;;;;4998270;28;20428;-71
2023/07/20 12:43:14;;;;;;;3.30;3.10;;;25.70;57.70;;;;;;5001739;28;20957;-71
2023/07/20 12:45:43;;;;;;;3.13;2.80;;;25.70;57.60;;;;;;4979842;28;20464;-71
2023/07/20 12:48:09;;;;;;;3.10;2.90;;;25.70;57.40;;;;;;5008988;28;20876;-71
2023/07/20 12:50:35;;;;;;;3.13;2.93;;;25.70;57.40;;;;;;4986227;28;20569;-71
2023/07/20 12:53:03;;;;;;;3.47;2.90;;;25.70;57.50;;;;;;5035743;28;20848;-71
2023/07/20 12:55:29;;;;;;;3.20;3.00;;;25.80;57.40;;;;;;5030618;28;20499;-70
2023/07/20 12:58:00;;;;;;;3.87;3.50;;;25.80;57.30;;;;;;4992135;28;20476;-71
2023/07/20 13:00:26;;;;;;;3.13;2.93;;;25.80;57.10;;;;;;5003222;28;20440;-71